Time;durP1;ratioP1;P1;durP2;ratioP2;P2;SDS_P1;SDS_P2;PMS_P1;PMS_P2;Temp;Humidity;BMP_temperature;BMP_pressure;BME280_temperature;BME280_humidity;BME280_pressure;Samples;Min_cycle;Max_cycle;Signal;HPM_P1;HPM_P2
2022/02/02 00:00:11;;;;;;;43.15;5.40;;;;;;;;;;5088922;28;20009;-70
2022/02/02 00:02:46;;;;;;;41.05;7.20;;;;;;;;;;5090521;28;20024;-70
2022/02/02 00:07:53;;;;;;;39.20;5.15;;;;;;;;;;5091652;28;20059;-69
2022/02/02 00:13:14;;;;;;;41.65;5.63;;;;;;;;;;5060489;28;20038;-70
2022/02/02 00:20:58;;;;;;;29.58;5.22;;;;;;;;;;5091501;28;20066;-71
2022/02/02 00:23:29;;;;;;;40.60;5.13;;;;;;;;;;5090604;28;20023;-69
2022/02/02 00:26:01;;;;;;;39.17;5.75;;;;;;;;;;5090870;28;20089;-71
2022/02/02 00:28:30;;;;;;;50.97;7.07;;;;;;;;;;5091577;28;20019;-70
2022/02/02 00:31:00;;;;;;;37.20;7.03;;;;;;;;;;5071569;28;20020;-70
2022/02/02 00:33:30;;;;;;;41.05;5.32;;;;;;;;;;5089903;28;20024;-71
2022/02/02 00:36:09;;;;;;;40.53;5.90;;;;;;;;;;5090248;28;20066;-71
2022/02/02 00:38:35;;;;;;;49.08;7.47;;;;;;;;;;5089594;28;20016;-71
2022/02/02 00:41:00;;;;;;;43.40;6.47;;;;;;;;;;5086223;28;20035;-71
2022/02/02 00:43:25;;;;;;;43.38;7.05;;;;;;;;;;5089940;28;20012;-70
2022/02/02 00:45:50;;;;;;;39.00;5.18;;;;;;;;;;5090274;28;20023;-70
2022/02/02 00:48:18;;;;;;;37.35;6.30;;;;;;;;;;5090555;28;20487;-70
2022/02/02 00:50:44;;;;;;;45.03;6.68;;;;;;;;;;5090413;28;20027;-71
2022/02/02 00:53:10;;;;;;;55.05;7.13;;;;;;;;;;5089389;28;20023;-71
2022/02/02 00:55:35;;;;;;;45.25;6.03;;;;;;;;;;5090675;28;20031;-71
2022/02/02 00:58:00;;;;;;;46.58;8.18;;;;;;;;;;5090848;28;20024;-71
2022/02/02 01:00:26;;;;;;;42.00;5.83;;;;;;;;;;5090468;28;20099;-71
2022/02/02 01:02:51;;;;;;;40.95;6.53;;;;;;;;;;5088115;28;20634;-70
2022/02/02 01:05:16;;;;;;;62.23;7.30;;;;;;;;;;5091332;28;20103;-71
2022/02/02 01:10:28;;;;;;;42.38;6.85;;;;;;;;;;5091339;28;20077;-71
2022/02/02 01:14:10;;;;;;;54.97;6.57;;;;;;;;;;5090740;28;20157;-70
2022/02/02 01:18:47;;;;;;;52.30;6.60;;;;;;;;;;5090006;28;20062;-71
2022/02/02 01:21:28;;;;;;;53.17;9.57;;;;;;;;;;5088957;28;20357;-71
2022/02/02 01:29:21;;;;;;;55.88;6.80;;;;;;;;;;5085511;28;20027;-70
2022/02/02 01:31:46;;;;;;;52.58;8.00;;;;;;;;;;5090150;28;20099;-70
2022/02/02 01:34:12;;;;;;;50.10;8.10;;;;;;;;;;5089724;28;20081;-71
2022/02/02 01:36:39;;;;;;;50.30;7.00;;;;;;;;;;5089890;28;20495;-71
2022/02/02 01:39:06;;;;;;;57.30;6.80;;;;;;;;;;5090747;28;20262;-71
2022/02/02 01:41:33;;;;;;;48.42;9.07;;;;;;;;;;5089556;28;20107;-71
2022/02/02 01:44:13;;;;;;;45.97;6.13;;;;;;;;;;5090588;28;20020;-70
2022/02/02 01:46:39;;;;;;;54.03;6.70;;;;;;;;;;5090435;28;20016;-70
2022/02/02 01:50:04;;;;;;;67.93;7.50;;;;;;;;;;5089618;28;20103;-70
2022/02/02 01:57:33;;;;;;;53.55;7.70;;;;;;;;;;5088307;28;19918;-71
2022/02/02 01:59:56;;;;;;;55.47;9.27;;;;;;;;;;5088884;28;20028;-71
2022/02/02 02:02:22;;;;;;;54.67;8.30;;;;;;;;;;5084283;28;20028;-71
2022/02/02 02:04:48;;;;;;;45.58;6.38;;;;;;;;;;5089173;28;20077;-70
2022/02/02 02:07:13;;;;;;;59.10;8.88;;;;;;;;;;5089610;28;20035;-71
2022/02/02 02:09:38;;;;;;;42.75;5.63;;;;;;;;;;5090513;28;20020;-70
2022/02/02 02:12:05;;;;;;;47.65;6.85;;;;;;;;;;5089295;28;20387;-70
2022/02/02 02:14:50;;;;;;;52.55;7.68;;;;;;;;;;5089984;28;20099;-71
2022/02/02 02:17:16;;;;;;;53.50;8.30;;;;;;;;;;5074443;28;20046;-70
2022/02/02 02:19:47;;;;;;;42.67;5.65;;;;;;;;;;5089818;28;20023;-70
2022/02/02 02:22:14;;;;;;;;;;;;;;;;;;5086486;28;20488;-71
2022/02/02 02:24:41;;;;;;;50.35;7.30;;;;;;;;;;5089532;28;19957;-70
2022/02/02 02:27:07;;;;;;;54.15;8.50;;;;;;;;;;5071732;28;20422;-71
2022/02/02 02:36:19;;;;;;;55.13;8.32;;;;;;;;;;5093195;28;20518;-70
2022/02/02 02:56:16;;;;;;;62.85;7.93;;;;;;;;;;5093378;28;20043;-71
2022/02/02 02:59:04;;;;;;;43.15;6.38;;;;;;;;;;5092990;28;20115;-70
2022/02/02 03:51:28;;;;;;;56.05;8.13;;;;;;;;;;5090968;28;20035;-69
2022/02/02 03:56:27;;;;;;;48.50;7.68;;;;;;;;;;5092305;28;20045;-71
2022/02/02 04:04:43;;;;;;;53.10;10.35;;;;;;;;;;5091660;28;20043;-70
2022/02/02 04:07:19;;;;;;;46.08;6.40;;;;;;;;;;5088849;28;20019;-71
2022/02/02 04:09:46;;;;;;;47.22;7.03;;;;;;;;;;5091277;28;20077;-71
2022/02/02 04:12:44;;;;;;;56.17;8.20;;;;;;;;;;5090658;28;20024;-70
2022/02/02 04:16:07;;;;;;;43.72;6.97;;;;;;;;;;5082947;28;20077;-71
2022/02/02 04:56:27;;;;;;;55.45;8.50;;;;;;;;;;5091131;28;20114;-71
2022/02/02 04:59:36;;;;;;;48.67;9.07;;;;;;;;;;5090228;28;20039;-71
2022/02/02 05:07:30;;;;;;;52.40;9.95;;;;;;;;;;5080487;22;20039;-87
2022/02/02 05:10:21;;;;;;;55.33;7.85;;;;;;;;;;5066300;28;20027;-88
2022/02/02 05:43:44;;;;;;;63.42;9.10;;;;;;;;;;5080092;28;20114;-69
2022/02/02 05:53:44;;;;;;;44.70;7.90;;;;;;;;;;5071544;28;20362;-69
2022/02/02 05:56:09;;;;;;;55.33;8.82;;;;;;;;;;5070605;28;20359;-70
2022/02/02 05:58:37;;;;;;;67.80;11.63;;;;;;;;;;5068171;28;20021;-72
2022/02/02 06:01:03;;;;;;;53.95;8.40;;;;;;;;;;5064030;28;20071;-69
2022/02/02 06:04:01;;;;;;;67.05;7.53;;;;;;;;;;5065872;28;20017;-70
2022/02/02 06:06:26;;;;;;;46.65;7.93;;;;;;;;;;5038917;28;20068;-69
2022/02/02 06:08:53;;;;;;;60.90;7.28;;;;;;;;;;5067624;28;20048;-69
2022/02/02 06:11:20;;;;;;;40.78;7.43;;;;;;;;;;5067416;28;20074;-69
2022/02/02 06:13:50;;;;;;;54.83;7.72;;;;;;;;;;5068952;28;20104;-69
2022/02/02 06:16:15;;;;;;;56.38;7.72;;;;;;;;;;5068386;28;20021;-70
2022/02/02 06:18:41;;;;;;;54.00;8.02;;;;;;;;;;5069366;28;20112;-69
2022/02/02 06:21:08;;;;;;;53.88;6.65;;;;;;;;;;5075247;28;20028;-69
2022/02/02 06:23:38;;;;;;;43.85;6.57;;;;;;;;;;5078233;28;20070;-69
2022/02/02 06:26:04;;;;;;;69.72;7.72;;;;;;;;;;5068985;28;20074;-69
2022/02/02 06:28:33;;;;;;;70.70;9.95;;;;;;;;;;5071505;28;20025;-70
2022/02/02 06:31:01;;;;;;;54.42;7.88;;;;;;;;;;5063895;28;20035;-70
2022/02/02 06:33:31;;;;;;;43.78;6.00;;;;;;;;;;5068399;28;20432;-70
2022/02/02 06:35:56;;;;;;;52.53;10.95;;;;;;;;;;5065008;28;20086;-70
2022/02/02 06:38:22;;;;;;;59.08;9.40;;;;;;;;;;5065606;28;20711;-70
2022/02/02 06:40:50;;;;;;;70.82;8.52;;;;;;;;;;5070776;28;20060;-70
2022/02/02 06:43:15;;;;;;;45.40;7.82;;;;;;;;;;5060264;28;20029;-70
2022/02/02 06:45:41;;;;;;;58.00;8.38;;;;;;;;;;5065535;28;20427;-71
2022/02/02 06:48:06;;;;;;;68.18;8.27;;;;;;;;;;5072413;28;20020;-70
2022/02/02 06:50:36;;;;;;;70.57;10.13;;;;;;;;;;5067138;28;20016;-70
2022/02/02 06:55:43;;;;;;;50.95;7.00;;;;;;;;;;5070311;28;20034;-70
2022/02/02 06:58:31;;;;;;;55.15;9.10;;;;;;;;;;5072963;28;20022;-70
2022/02/02 07:04:08;;;;;;;40.97;6.55;;;;;;;;;;5069338;28;20132;-70
2022/02/02 07:06:57;;;;;;;76.97;12.30;;;;;;;;;;5068960;28;20031;-70
2022/02/02 07:09:24;;;;;;;56.83;8.23;;;;;;;;;;5055941;28;20112;-70
2022/02/02 07:14:24;;;;;;;46.47;8.53;;;;;;;;;;5069159;28;20111;-70
2022/02/02 07:17:12;;;;;;;61.13;8.65;;;;;;;;;;5072468;28;20354;-72
2022/02/02 07:25:27;;;;;;;59.22;9.35;;;;;;;;;;5060801;28;20577;-70
2022/02/02 07:28:07;;;;;;;52.95;7.20;;;;;;;;;;5064547;28;20020;-70
2022/02/02 07:33:17;;;;;;;61.05;7.60;;;;;;;;;;5072753;28;20376;-70
2022/02/02 07:36:30;;;;;;;47.50;7.18;;;;;;;;;;5055686;28;20400;-70
2022/02/02 07:38:35;;;;;;;61.72;6.82;;;;;;;;;;5064330;28;20537;-70
2022/02/02 07:41:08;;;;;;;62.50;10.02;;;;;;;;;;5052902;28;20404;-70
2022/02/02 07:43:40;;;;;;;51.00;7.93;;;;;;;;;;5057408;28;20028;-70
2022/02/02 07:46:06;;;;;;;56.45;8.63;;;;;;;;;;5070729;28;20028;-70
2022/02/02 07:48:36;;;;;;;50.92;7.40;;;;;;;;;;5069856;28;20381;-70
2022/02/02 07:51:02;;;;;;;61.85;9.52;;;;;;;;;;5071516;28;20035;-70
2022/02/02 07:53:35;;;;;;;48.35;7.43;;;;;;;;;;5072382;28;20025;-70
2022/02/02 07:56:03;;;;;;;68.28;10.75;;;;;;;;;;5070777;28;20066;-70
2022/02/02 07:58:29;;;;;;;51.67;12.23;;;;;;;;;;5072215;28;20086;-70
2022/02/02 08:00:55;;;;;;;58.47;8.00;;;;;;;;;;5067425;28;20047;-70
2022/02/02 08:03:20;;;;;;;36.58;6.70;;;;;;;;;;5071508;28;20373;-70
2022/02/02 08:05:48;;;;;;;41.15;7.00;;;;;;;;;;5071777;28;20090;-70
2022/02/02 08:10:47;;;;;;;45.38;7.15;;;;;;;;;;5068763;28;20070;-70
2022/02/02 08:13:19;;;;;;;67.88;7.10;;;;;;;;;;5072764;28;20451;-70
2022/02/02 08:15:50;;;;;;;48.80;6.78;;;;;;;;;;5066663;28;20078;-70
2022/02/02 08:18:15;;;;;;;45.75;6.82;;;;;;;;;;5069858;28;20033;-70
2022/02/02 08:20:40;;;;;;;52.03;10.47;;;;;;;;;;5072353;28;20033;-70
2022/02/02 08:23:05;;;;;;;54.85;7.78;;;;;;;;;;5071595;28;20341;-70
2022/02/02 08:25:31;;;;;;;48.20;6.32;;;;;;;;;;5071424;28;20018;-70
2022/02/02 08:27:59;;;;;;;36.88;6.18;;;;;;;;;;5065065;28;20028;-70
2022/02/02 08:30:27;;;;;;;42.47;6.55;;;;;;;;;;5071164;28;20025;-70
2022/02/02 08:33:00;;;;;;;38.67;6.57;;;;;;;;;;5071148;28;20013;-70
2022/02/02 08:35:26;;;;;;;49.85;6.65;;;;;;;;;;5071144;28;20016;-70
2022/02/02 08:38:04;;;;;;;43.50;7.15;;;;;;;;;;5069606;28;20020;-71
2022/02/02 08:40:35;;;;;;;42.80;9.13;;;;;;;;;;5070878;28;20031;-70
2022/02/02 08:43:07;;;;;;;49.45;8.52;;;;;;;;;;5061958;28;20102;-70
2022/02/02 08:45:35;;;;;;;54.45;7.70;;;;;;;;;;5070359;28;20516;-70
2022/02/02 08:48:05;;;;;;;48.92;7.40;;;;;;;;;;5069392;28;20028;-71
2022/02/02 08:50:55;;;;;;;44.90;8.75;;;;;;;;;;5067667;28;20531;-70
2022/02/02 08:53:30;;;;;;;61.63;10.48;;;;;;;;;;5065401;28;20074;-70
2022/02/02 08:58:40;;;;;;;32.17;5.97;;;;;;;;;;5070253;28;20039;-70
2022/02/02 09:01:26;;;;;;;45.85;9.02;;;;;;;;;;5070208;28;20542;-70
2022/02/02 09:06:36;;;;;;;50.72;8.35;;;;;;;;;;5069882;28;20075;-71
2022/02/02 09:09:12;;;;;;;45.05;6.80;;;;;;;;;;5069933;28;20028;-71
2022/02/02 09:25:14;;;;;;;33.50;5.60;;;;;;;;;;5070232;28;20456;-70
2022/02/02 09:35:38;;;;;;;37.50;6.63;;;;;;;;;;5069873;28;20036;-71
2022/02/02 09:38:03;;;;;;;37.97;5.78;;;;;;;;;;5063724;28;20032;-71
2022/02/02 09:43:05;;;;;;;39.85;7.40;;;;;;;;;;5070328;28;20078;-70
2022/02/02 09:45:30;;;;;;;44.13;7.38;;;;;;;;;;5069691;28;20020;-71
2022/02/02 09:47:59;;;;;;;38.10;6.28;;;;;;;;;;5069914;28;20016;-70
2022/02/02 09:50:34;;;;;;;43.08;6.68;;;;;;;;;;5070129;28;20023;-71
2022/02/02 09:53:02;;;;;;;51.45;7.55;;;;;;;;;;5068450;28;20113;-70
2022/02/02 10:00:47;;;;;;;55.67;8.43;;;;;;;;;;5068737;28;20026;-70
2022/02/02 10:05:57;;;;;;;39.60;6.93;;;;;;;;;;5069233;28;20031;-70
2022/02/02 10:14:16;;;;;;;41.75;7.28;;;;;;;;;;5070077;28;20166;-70
2022/02/02 10:16:43;;;;;;;42.97;6.47;;;;;;;;;;5067703;28;20062;-70
2022/02/02 10:19:15;;;;;;;56.95;8.73;;;;;;;;;;5070193;28;20115;-70
2022/02/02 10:21:41;;;;;;;53.08;8.63;;;;;;;;;;5067220;28;20074;-70
2022/02/02 10:24:06;;;;;;;63.40;7.15;;;;;;;;;;5069439;28;20024;-70
2022/02/02 10:26:31;;;;;;;46.88;6.88;;;;;;;;;;5069283;28;20017;-70
2022/02/02 10:29:05;;;;;;;53.55;8.30;;;;;;;;;;5069330;28;20012;-70
2022/02/02 10:31:38;;;;;;;42.40;7.07;;;;;;;;;;5068232;28;20021;-70
2022/02/02 10:34:12;;;;;;;42.08;6.70;;;;;;;;;;5068020;28;20481;-70
2022/02/02 10:36:37;;;;;;;58.28;7.85;;;;;;;;;;5069162;28;20078;-71
2022/02/02 10:39:15;;;;;;;46.03;6.63;;;;;;;;;;5069482;28;20028;-70
2022/02/02 10:41:46;;;;;;;47.58;6.03;;;;;;;;;;5049538;28;20040;-70
2022/02/02 10:44:24;;;;;;;47.42;7.50;;;;;;;;;;5068980;28;20055;-70
2022/02/02 10:46:58;;;;;;;56.95;7.32;;;;;;;;;;5069276;28;20019;-70
2022/02/02 10:52:07;;;;;;;48.95;7.07;;;;;;;;;;5071798;28;20367;-71
2022/02/02 10:58:01;;;;;;;49.70;7.07;;;;;;;;;;5073737;28;20038;-70
2022/02/02 11:07:52;;;;;;;56.45;8.13;;;;;;;;;;5072532;28;20031;-70
2022/02/02 11:10:17;;;;;;;45.95;8.85;;;;;;;;;;5073191;28;20540;-71
2022/02/02 11:12:46;;;;;;;53.45;8.95;;;;;;;;;;5071488;28;20107;-71
2022/02/02 11:15:14;;;;;;;76.55;9.63;;;;;;;;;;5071515;28;20032;-70
2022/02/02 11:17:47;;;;;;;51.78;10.55;;;;;;;;;;5072770;28;20058;-70
2022/02/02 11:20:14;;;;;;;53.03;8.07;;;;;;;;;;5071796;28;20039;-70
2022/02/02 11:22:49;;;;;;;51.25;9.27;;;;;;;;;;5071590;28;20020;-71
2022/02/02 11:25:15;;;;;;;49.83;7.22;;;;;;;;;;5071587;28;20051;-71
2022/02/02 11:27:48;;;;;;;57.40;8.88;;;;;;;;;;5072332;28;20472;-71
2022/02/02 11:30:23;;;;;;;54.50;7.60;;;;;;;;;;5072171;28;20016;-71
2022/02/02 11:32:49;;;;;;;56.72;8.88;;;;;;;;;;5071542;28;20269;-70
2022/02/02 11:35:37;;;;;;;58.95;8.43;;;;;;;;;;5072440;28;20490;-70
2022/02/02 11:38:10;;;;;;;57.10;8.27;;;;;;;;;;5067035;28;20033;-70
2022/02/02 11:40:55;;;;;;;48.15;8.13;;;;;;;;;;5071997;28;20055;-71
2022/02/02 11:43:41;;;;;;;54.45;7.32;;;;;;;;;;5071573;28;20039;-71
2022/02/02 11:46:06;;;;;;;56.50;10.13;;;;;;;;;;5071111;28;20020;-71
2022/02/02 11:49:00;;;;;;;62.45;10.18;;;;;;;;;;5072601;28;20473;-71
2022/02/02 11:51:44;;;;;;;58.63;8.25;;;;;;;;;;5070420;28;20416;-70
2022/02/02 11:54:10;;;;;;;67.78;9.15;;;;;;;;;;5072695;28;20027;-70
2022/02/02 11:56:53;;;;;;;55.25;7.72;;;;;;;;;;5071330;28;20372;-70
2022/02/02 11:59:38;;;;;;;46.00;7.05;;;;;;;;;;5066588;28;20392;-71
2022/02/02 12:02:19;;;;;;;46.97;8.30;;;;;;;;;;5070129;28;20423;-70
2022/02/02 12:04:59;;;;;;;44.40;7.53;;;;;;;;;;5071504;28;20021;-71
2022/02/02 12:08:02;;;;;;;44.97;5.97;;;;;;;;;;5060157;28;20108;-71
2022/02/02 12:11:05;;;;;;;51.33;8.63;;;;;;;;;;5061672;28;20024;-70
2022/02/02 12:49:25;;;;;;;61.20;8.10;;;;;;;;;;5071105;28;20065;-71
2022/02/02 12:55:59;;;;;;;40.40;6.90;;;;;;;;;;5044808;28;20113;-71
2022/02/02 12:58:01;;;;;;;52.13;7.38;;;;;;;;;;5070280;28;20032;-72
2022/02/02 13:02:59;;;;;;;52.83;7.40;;;;;;;;;;5070742;28;20050;-71
2022/02/02 13:05:24;;;;;;;37.88;6.63;;;;;;;;;;5062982;28;20492;-72
2022/02/02 13:07:52;;;;;;;41.30;8.20;;;;;;;;;;5070198;28;20020;-72
2022/02/02 13:10:21;;;;;;;36.17;6.07;;;;;;;;;;5070608;28;20477;-72
2022/02/02 13:12:55;;;;;;;42.20;6.88;;;;;;;;;;5069519;28;20016;-72
2022/02/02 13:20:33;;;;;;;42.70;6.95;;;;;;;;;;5070118;28;20028;-73
2022/02/02 13:23:09;;;;;;;30.77;6.20;;;;;;;;;;5068650;28;20551;-72
2022/02/02 13:25:35;;;;;;;36.70;8.95;;;;;;;;;;5070034;28;20027;-72
2022/02/02 13:28:02;;;;;;;48.92;8.35;;;;;;;;;;5070438;28;20496;-73
2022/02/02 13:30:37;;;;;;;44.47;6.60;;;;;;;;;;5069946;28;20032;-72
2022/02/02 13:33:34;;;;;;;35.10;6.63;;;;;;;;;;5069649;28;20027;-73
2022/02/02 13:37:16;;;;;;;38.60;6.82;;;;;;;;;;5069276;28;20098;-73
2022/02/02 13:39:23;;;;;;;35.17;6.20;;;;;;;;;;5060010;28;20101;-72
2022/02/02 13:44:48;;;;;;;44.55;7.63;;;;;;;;;;5070192;28;20040;-74
2022/02/02 13:50:35;;;;;;;38.17;5.47;;;;;;;;;;5069965;28;20039;-73
2022/02/02 13:53:20;;;;;;;41.17;6.40;;;;;;;;;;5068054;28;20024;-71
2022/02/02 13:56:05;;;;;;;46.35;7.78;;;;;;;;;;5067423;28;20013;-71
2022/02/02 13:58:43;;;;;;;33.03;5.43;;;;;;;;;;5070087;28;20024;-70
2022/02/02 14:01:25;;;;;;;33.10;6.10;;;;;;;;;;5069998;28;20020;-72
2022/02/02 14:25:51;;;;;;;39.35;7.45;;;;;;;;;;5068950;28;20070;-74
2022/02/02 14:33:17;;;;;;;31.65;4.57;;;;;;;;;;5073379;28;20069;-72
2022/02/02 14:35:44;;;;;;;29.58;5.25;;;;;;;;;;5073409;28;20025;-72
2022/02/02 14:38:11;;;;;;;35.35;4.82;;;;;;;;;;5073381;28;20044;-72
2022/02/02 14:40:45;;;;;;;24.13;4.10;;;;;;;;;;5073946;28;20028;-71
2022/02/02 14:43:14;;;;;;;40.85;5.85;;;;;;;;;;5073120;28;20135;-72
2022/02/02 14:45:45;;;;;;;29.98;4.93;;;;;;;;;;5073040;28;20017;-72
2022/02/02 14:48:20;;;;;;;37.85;6.68;;;;;;;;;;5073628;28;20024;-72
2022/02/02 15:28:03;;;;;;;29.98;5.07;;;;;;;;;;5072494;28;20020;-73
2022/02/02 15:33:18;;;;;;;32.10;5.75;;;;;;;;;;5071884;28;20472;-73
2022/02/02 15:35:45;;;;;;;29.58;5.38;;;;;;;;;;5070598;28;20062;-73
2022/02/02 15:38:18;;;;;;;24.30;4.90;;;;;;;;;;5072273;28;20073;-72
2022/02/02 15:40:52;;;;;;;26.83;5.30;;;;;;;;;;5071866;28;20025;-73
2022/02/02 15:43:50;;;;;;;25.67;4.43;;;;;;;;;;5071988;28;20063;-71
2022/02/02 16:02:32;;;;;;;27.45;4.70;;;;;;;;;;5071728;28;20107;-72
2022/02/02 16:04:58;;;;;;;27.13;4.80;;;;;;;;;;5071487;28;20107;-71
2022/02/02 16:07:27;;;;;;;31.80;4.85;;;;;;;;;;5070966;28;20423;-72
2022/02/02 16:09:56;;;;;;;28.17;4.85;;;;;;;;;;5071149;28;20020;-71
2022/02/02 16:14:54;;;;;;;30.80;6.00;;;;;;;;;;5071391;28;20027;-71
2022/02/02 16:31:33;;;;;;;32.90;5.68;;;;;;;;;;5071482;28;20031;-71
2022/02/02 16:36:35;;;;;;;28.17;5.30;;;;;;;;;;5059602;28;20469;-74
2022/02/02 16:39:00;;;;;;;30.52;5.25;;;;;;;;;;5072585;28;20050;-75
2022/02/02 16:44:09;;;;;;;32.50;4.85;;;;;;;;;;5071460;28;20055;-72
2022/02/02 16:46:34;;;;;;;30.80;5.15;;;;;;;;;;5071769;28;20017;-71
2022/02/02 16:49:00;;;;;;;38.25;4.90;;;;;;;;;;5071642;28;20131;-70
2022/02/02 16:51:25;;;;;;;32.20;5.18;;;;;;;;;;5071803;28;20024;-70
2022/02/02 16:53:52;;;;;;;36.37;6.50;;;;;;;;;;5072634;28;20079;-72
2022/02/02 16:56:36;;;;;;;34.75;5.95;;;;;;;;;;5072514;28;20259;-71
2022/02/02 17:39:55;;;;;;;35.28;5.90;;;;;;;;;;5040887;28;20267;-72
2022/02/02 18:12:16;;;;;;;49.63;11.40;;;;;;;;;;5070547;28;20028;-70
2022/02/02 18:12:39;;;;;;;40.63;10.43;;;;;;;;;;5068948;28;20028;-71
2022/02/02 18:18:44;;;;;;;32.75;10.70;;;;;;;;;;5067385;28;20538;-70
2022/02/02 18:20:54;;;;;;;44.85;10.30;;;;;;;;;;5068017;28;20036;-71
2022/02/02 18:28:51;;;;;;;38.72;8.70;;;;;;;;;;5066650;28;20058;-70
2022/02/02 18:31:38;;;;;;;33.65;8.23;;;;;;;;;;5067412;28;20027;-69
2022/02/02 18:58:06;;;;;;;35.08;7.40;;;;;;;;;;5049347;28;20036;-72
2022/02/02 19:00:48;;;;;;;33.50;8.70;;;;;;;;;;5063844;28;20028;-71
2022/02/02 19:39:27;;;;;;;37.20;9.95;;;;;;;;;;5071286;28;20519;-72
2022/02/02 19:52:46;;;;;;;30.67;8.48;;;;;;;;;;5071515;28;20039;-71
2022/02/02 19:55:36;;;;;;;38.55;9.60;;;;;;;;;;5073398;28;20032;-71
2022/02/02 20:08:40;;;;;;;34.83;8.88;;;;;;;;;;5079786;28;20013;-72
2022/02/02 20:11:08;;;;;;;;;;;;;;;;;;5070309;28;20031;-71
2022/02/02 20:13:36;;;;;;;29.60;10.45;;;;;;;;;;5071093;28;19908;-71
2022/02/02 20:16:02;;;;;;;27.70;8.30;;;;;;;;;;5071160;28;20396;-71
2022/02/02 20:18:29;;;;;;;39.53;10.50;;;;;;;;;;5068739;28;20024;-73
2022/02/02 20:20:56;;;;;;;32.03;11.23;;;;;;;;;;5071351;28;20016;-71
2022/02/02 20:23:21;;;;;;;43.25;11.40;;;;;;;;;;5071482;28;20465;-71
2022/02/02 20:25:51;;;;;;;43.65;11.63;;;;;;;;;;5076679;28;20024;-71
2022/02/02 20:28:16;;;;;;;37.60;11.30;;;;;;;;;;5078932;28;20035;-71
2022/02/02 20:30:42;;;;;;;40.95;11.48;;;;;;;;;;5080066;28;20021;-71
2022/02/02 20:33:07;;;;;;;35.90;11.73;;;;;;;;;;5070936;28;20032;-71
2022/02/02 20:35:32;;;;;;;38.92;11.25;;;;;;;;;;5071876;28;20086;-71
2022/02/02 20:37:57;;;;;;;50.08;13.52;;;;;;;;;;5061707;28;20025;-71
2022/02/02 20:40:24;;;;;;;43.78;14.80;;;;;;;;;;5068998;28;20102;-71
2022/02/02 21:14:44;;;;;;;37.67;11.75;;;;;;;;;;5070143;28;20016;-72
2022/02/02 21:17:18;;;;;;;45.75;14.48;;;;;;;;;;5064694;28;20389;-74
2022/02/02 21:20:09;;;;;;;37.17;14.82;;;;;;;;;;5070766;28;20476;-73
2022/02/02 21:22:45;;;;;;;;;;;;;;;;;;5077305;28;20148;-73
2022/02/02 21:25:33;;;;;;;35.33;11.80;;;;;;;;;;5069495;28;19920;-73
2022/02/02 21:27:58;;;;;;;39.03;11.80;;;;;;;;;;5076279;28;20470;-73
2022/02/02 21:30:28;;;;;;;31.98;12.27;;;;;;;;;;5077767;28;20028;-72
2022/02/02 21:32:54;;;;;;;47.53;13.45;;;;;;;;;;5074651;28;20366;-72
2022/02/02 21:35:19;;;;;;;41.70;14.48;;;;;;;;;;5078578;28;20031;-72
2022/02/02 21:37:47;;;;;;;38.75;13.38;;;;;;;;;;5075050;28;20019;-73
2022/02/02 21:40:21;;;;;;;40.83;13.50;;;;;;;;;;5070585;28;20020;-73
2022/02/02 21:42:48;;;;;;;38.70;14.25;;;;;;;;;;5071324;28;20066;-72
2022/02/02 21:45:13;;;;;;;48.22;15.43;;;;;;;;;;5070079;28;20020;-73
2022/02/02 21:47:39;;;;;;;40.38;15.40;;;;;;;;;;5069524;28;20016;-73
2022/02/02 21:50:11;;;;;;;40.70;14.93;;;;;;;;;;5073210;28;20099;-73
2022/02/02 21:52:36;;;;;;;40.40;17.52;;;;;;;;;;5073745;28;20034;-73
2022/02/02 21:55:02;;;;;;;49.60;14.82;;;;;;;;;;5070455;28;20024;-72
2022/02/02 21:57:28;;;;;;;48.80;14.88;;;;;;;;;;5078317;28;20024;-72
2022/02/02 21:59:53;;;;;;;48.97;15.63;;;;;;;;;;5071416;28;20016;-72
2022/02/02 22:02:18;;;;;;;44.20;16.20;;;;;;;;;;5070310;28;20036;-73
2022/02/02 22:04:44;;;;;;;51.00;17.05;;;;;;;;;;5069766;28;20013;-72
2022/02/02 22:07:09;;;;;;;47.60;16.27;;;;;;;;;;5068560;28;20039;-73
2022/02/02 22:09:34;;;;;;;46.35;17.45;;;;;;;;;;5062273;28;20025;-73
2022/02/02 22:12:00;;;;;;;42.83;17.60;;;;;;;;;;5051469;28;20013;-73
2022/02/02 22:14:25;;;;;;;41.28;17.15;;;;;;;;;;5068186;28;20028;-73
2022/02/02 22:16:52;;;;;;;44.08;18.38;;;;;;;;;;5067450;28;20055;-73
2022/02/02 22:19:18;;;;;;;51.63;17.30;;;;;;;;;;5069614;28;20016;-72
2022/02/02 22:21:43;;;;;;;44.92;17.85;;;;;;;;;;5065887;28;20495;-73
2022/02/02 22:24:08;;;;;;;47.53;17.00;;;;;;;;;;5066591;28;20029;-73
2022/02/02 22:26:35;;;;;;;51.35;18.50;;;;;;;;;;5073716;28;20017;-74
2022/02/02 22:29:00;;;;;;;42.88;16.88;;;;;;;;;;5066589;28;20023;-73
2022/02/02 22:31:26;;;;;;;44.17;17.27;;;;;;;;;;5067751;28;20016;-73
2022/02/02 22:33:51;;;;;;;45.08;18.05;;;;;;;;;;5075610;28;20603;-73
2022/02/02 22:36:18;;;;;;;52.63;18.63;;;;;;;;;;5066621;28;20016;-73
2022/02/02 22:38:44;;;;;;;51.33;18.58;;;;;;;;;;5064021;28;20270;-73
2022/02/02 22:41:09;;;;;;;44.35;17.73;;;;;;;;;;5067579;28;20040;-73
2022/02/02 22:43:42;;;;;;;56.65;20.15;;;;;;;;;;5067797;28;20028;-73
2022/02/02 22:46:07;;;;;;;44.20;18.02;;;;;;;;;;5067168;28;20388;-74
2022/02/02 22:48:34;;;;;;;53.70;18.88;;;;;;;;;;5069312;28;20099;-72
2022/02/02 22:50:59;;;;;;;46.22;17.65;;;;;;;;;;5061075;28;20113;-73
2022/02/02 22:53:25;;;;;;;56.03;20.10;;;;;;;;;;5072062;28;20096;-73
2022/02/02 22:55:51;;;;;;;52.10;18.65;;;;;;;;;;5072217;28;20569;-73
2022/02/02 22:58:16;;;;;;;49.53;19.17;;;;;;;;;;5073373;28;20027;-74
2022/02/02 23:00:41;;;;;;;48.55;17.73;;;;;;;;;;5071904;28;20263;-72
2022/02/02 23:03:12;;;;;;;39.85;16.77;;;;;;;;;;5069404;28;20028;-74
2022/02/02 23:05:41;;;;;;;44.47;17.15;;;;;;;;;;5077884;28;20388;-73
2022/02/02 23:08:08;;;;;;;46.08;17.83;;;;;;;;;;5068309;28;20528;-73
2022/02/02 23:10:35;;;;;;;51.17;18.15;;;;;;;;;;5061557;28;20025;-72
2022/02/02 23:13:00;;;;;;;46.80;18.30;;;;;;;;;;5079672;28;20017;-72
2022/02/02 23:15:41;;;;;;;44.05;20.02;;;;;;;;;;5067800;28;20071;-73
2022/02/02 23:18:27;;;;;;;39.88;15.32;;;;;;;;;;5059786;28;20032;-72
2022/02/02 23:21:00;;;;;;;48.17;17.67;;;;;;;;;;5075222;28;20016;-73
2022/02/02 23:23:28;;;;;;;51.38;18.52;;;;;;;;;;5091588;28;20031;-73
2022/02/02 23:25:54;;;;;;;40.78;17.15;;;;;;;;;;5092090;28;20061;-73
2022/02/02 23:28:22;;;;;;;50.58;18.10;;;;;;;;;;5092173;28;20016;-72
2022/02/02 23:30:47;;;;;;;59.92;19.23;;;;;;;;;;5089322;28;20103;-73
2022/02/02 23:33:13;;;;;;;35.10;14.93;;;;;;;;;;5080437;28;20050;-73
2022/02/02 23:35:39;;;;;;;46.35;17.80;;;;;;;;;;5083314;28;20173;-73
2022/02/02 23:38:06;;;;;;;53.13;19.58;;;;;;;;;;5071497;28;20468;-73
2022/02/02 23:40:45;;;;;;;61.25;22.95;;;;;;;;;;5071554;28;20081;-73
2022/02/02 23:43:11;;;;;;;58.72;21.38;;;;;;;;;;5072471;28;20024;-72
2022/02/02 23:45:36;;;;;;;40.83;15.35;;;;;;;;;;5067666;28;20029;-72
2022/02/02 23:48:03;;;;;;;67.45;20.25;;;;;;;;;;5070545;28;20452;-73
2022/02/02 23:50:29;;;;;;;58.42;20.70;;;;;;;;;;5066930;28;20021;-73
2022/02/02 23:52:56;;;;;;;65.03;22.50;;;;;;;;;;5071983;28;20020;-73
2022/02/02 23:55:35;;;;;;;51.92;20.55;;;;;;;;;;5066547;28;20021;-71
2022/02/02 23:58:09;;;;;;;54.72;21.58;;;;;;;;;;5069239;28;20035;-71
